Dobbins Air Reserve Base Airport
KMGE : now visible

Airfield :











YOU CAN JOIN US ON...

 
LOGIN :

Register | Disclaimer

   EN    FR    IT 

 









Legend :    VFR   Marginal VFR   IFR   Intensive IFR   Very Intensive IFR
Visi :
Ceiling :
>= 8 km
>= 3000ft
5 to 8 km
1000 to 3000 ft
1500m to 5 km
500 to 1000 ft
800 to 1500m
200 to 500 ft
< 800m
< 200 ft
Symbols :   Thunderstorms  Fog  Heavy snow  Heavy precipitations  Wind > 20 kt






- Airport Elevation : 1068 ft


KMGE - Dobbins Air Reserve Base

CURRENT METAR :
  • 050726Z AUTO 00000KT 8SM FEW026 SCT050 13/12 A3012 RMK AO2 SLP198 $

EXPIRED METARs :
  • 050656Z AUTO 00000KT 7SM BKN028 12/12 A3012 RMK AO2 CIG 028V050 SLP198 T01240122 $
  • 050641Z AUTO 00000KT 7SM SCT029 12/12 A3012 RMK AO2 SLP198 $
  • 050626Z AUTO 00000KT 2 3/4SM BR FEW029 FEW048 12/12 A3011 RMK AO2 VIS 2 1/2V5 SLP195 $
  • 050556Z AUTO 00000KT 7SM FEW050 12/12 A3012 RMK AO2 SLP198 T01230118 10144 20123 58004 $
  • 050456Z AUTO 00000KT 9SM SCT049 13/12 A3012 RMK AO2 SLP198 T01310118 402100078 $

TAF TAF KMGE
Valid from the 04 at 22:00 until the 06 at 04:00 UTC


042200Z 0422/0604 30009KT 9999 FEW035 BKN150 BKN250 QNH3008INS
BECMG 0422/0423 VRB06KT 9999 SCT035 BKN180 BKN250 QNH3009INS
BECMG 0508/0509 05006KT 8000 BR BKN015 QNH3013INS
BECMG 0510/0511 09006KT 3200 BR BKN007 OVC012 QNH3015INS
BECMG 0515/0516 12006KT 9999 VCSH BKN012 QNH3013INS
BECMG 0518/0519 14009KT 9999 NSW BKN020 BKN050 QNH3010INS
BECMG 0522/0523 14006KT 9999 BKN035 QNH3012INS TX18/0520Z TN10/0512Z LAST NO AMDS AFT 0504 NEXT 0511
KZTL FIR / North America



MET'MAP, your aeronautical weather chart ! - Copyright ORBIFLY December 2007 - Disclaimer

ORBIFLY MET'MAP TEAM :

Programming & Development : Alexandra Zaïnal
Concept & original design : Baudouin d'Aumeries
Assistance for programming : Marc-Olivier Méhu
Technical & hardware support : Manuel Goepfert

Contact : metmap@orbifly.com




SOURCES & CREDITS :

   NOAA       Earth
Advisory